Fort Simpson, Northwest Territories

8:41 PM MDT on May 25, 2017 (GMT -0600)
Fort Simpson | | Change Station

Elev 554 ft 61.75 °N, 121.23 °W | Updated 41 minutes ago

Clear
Clear
70 °F
Feels Like 70 °F
N
4
Wind Variable Wind from SSE

Today
High -- | Low -- °F
--% Chance of Precip.
Yesterday
High -- | Low -- °F
Precip. -- in
Pressure 29.73 in
Visibility 15.0 miles
Clouds Few 6000 ft
Few 8000 ft
Few 21000 ft
Dew Point 36 °F
Humidity 28%
Rainfall 0.00 in
Snow Depth Not available.
4:47 AM 11:17 PM
New Moon, 0% visible
METAR CYFS 260200Z 15003KT 090V180 15SM FEW060 FEW080 FEW210 21/02 A2971 RMK CU1AC1CI1 AC TR SLP066 DENSITY ALT 1600FT
Pressure 29.73 in
Visibility 15.0 miles
Clouds Few 6000 ft
Few 8000 ft
Few 21000 ft
Dew Point 36 °F
Humidity 28%
Rainfall 0.00 in
Snow Depth Not available.
4:47 AM 11:17 PM
New Moon, 0% visible
METAR CYFS 260200Z 15003KT 090V180 15SM FEW060 FEW080 FEW210 21/02 A2971 RMK CU1AC1CI1 AC TR SLP066 DENSITY ALT 1600FT

Get Severe Weather Alerts

Thanks for signing up!

Be on the lookout for a verification email in your inbox.

You'll start receiving the daily forecast at 6 AM.

×

10-Day Weather Forecast

Almanac

Astronomy

May. 25, 2017 Rise Set
Actual Time
Civil Twilight
Nautical Twilight
Astronomical Twilight
Moon
Length of Visible Light
Length of Day
Tomorrow will be .
, % of the Moon is Illuminated

Today's Extremes

Country Highs Country Lows

Community

WunderPhotos

Category 6

Welcome to Category 6. This is the collective home for Weather Underground's featured writeups by Dr. Jeff Masters (right), Bob Henson (left), Chris Burt, and other regular contributors.

Nearby

Air Quality

  Air Quality AQ Index Pollutant
Not available.

Snow Depth

Station Depth Elevation

Earthquake Activity

City Distance Mag. Time & Date
Minimum magnitude displayed is 2.5.

Coastal Water Temperatures

Place Temperature

Stations

Nearby Weather Stations

Station Location Temp. Windchill Dew Point Humidity Wind Precip. Elev Updated Type
                   

Watches & Warnings

There are currently no watches in effect.